sensor_id;sensor_type;location;lat;lon;timestamp;pressure;altitude;pressure_sealevel;temperature;humidity
35918;BME280;22011;59.912;30.300;2023-05-16T00:00:32;101787.81;;;16.65;44.71
35918;BME280;22011;59.912;30.300;2023-05-16T00:03:00;101781.13;;;16.61;44.69
35918;BME280;22011;59.912;30.300;2023-05-16T00:05:28;101771.56;;;16.59;44.37
35918;BME280;22011;59.912;30.300;2023-05-16T00:07:56;101777.47;;;16.54;44.69
35918;BME280;22011;59.912;30.300;2023-05-16T00:10:24;101767.72;;;16.53;43.90
35918;BME280;22011;59.912;30.300;2023-05-16T00:12:51;101772.28;;;16.53;43.90
35918;BME280;22011;59.912;30.300;2023-05-16T00:15:21;101766.06;;;16.52;43.81
35918;BME280;22011;59.912;30.300;2023-05-16T00:17:50;101760.19;;;16.49;43.74
35918;BME280;22011;59.912;30.300;2023-05-16T00:20:17;101756.84;;;16.47;44.05
35918;BME280;22011;59.912;30.300;2023-05-16T00:22:48;101755.53;;;16.43;43.67
35918;BME280;22011;59.912;30.300;2023-05-16T00:25:16;101752.00;;;16.42;44.57
35918;BME280;22011;59.912;30.300;2023-05-16T00:27:43;101753.19;;;16.40;43.77
35918;BME280;22011;59.912;30.300;2023-05-16T00:30:12;101753.03;;;16.41;43.91
35918;BME280;22011;59.912;30.300;2023-05-16T00:32:41;101746.63;;;16.42;43.76
35918;BME280;22011;59.912;30.300;2023-05-16T00:35:09;101751.88;;;16.35;44.05
35918;BME280;22011;59.912;30.300;2023-05-16T00:37:37;101749.75;;;16.31;43.99
35918;BME280;22011;59.912;30.300;2023-05-16T00:40:06;101748.59;;;16.25;44.39
35918;BME280;22011;59.912;30.300;2023-05-16T00:42:35;101746.56;;;16.27;43.67
35918;BME280;22011;59.912;30.300;2023-05-16T00:45:04;101755.66;;;16.26;44.13
35918;BME280;22011;59.912;30.300;2023-05-16T00:47:32;101748.94;;;16.22;44.13
35918;BME280;22011;59.912;30.300;2023-05-16T00:50:01;101747.09;;;16.23;44.66
35918;BME280;22011;59.912;30.300;2023-05-16T00:52:30;101747.81;;;16.17;44.17
35918;BME280;22011;59.912;30.300;2023-05-16T00:54:58;101735.25;;;16.09;44.44
35918;BME280;22011;59.912;30.300;2023-05-16T00:57:26;101730.06;;;16.08;44.14
35918;BME280;22011;59.912;30.300;2023-05-16T00:59:54;101739.13;;;16.07;44.29
35918;BME280;22011;59.912;30.300;2023-05-16T01:02:21;101735.63;;;16.06;44.42
35918;BME280;22011;59.912;30.300;2023-05-16T01:04:52;101725.50;;;16.08;44.01
35918;BME280;22011;59.912;30.300;2023-05-16T01:07:20;101733.09;;;16.05;44.77
35918;BME280;22011;59.912;30.300;2023-05-16T01:09:48;101734.81;;;15.97;44.54
35918;BME280;22011;59.912;30.300;2023-05-16T01:12:21;101743.19;;;16.02;44.98
35918;BME280;22011;59.912;30.300;2023-05-16T01:14:55;101744.03;;;16.03;44.54
35918;BME280;22011;59.912;30.300;2023-05-16T01:17:34;101739.13;;;16.07;44.24
35918;BME280;22011;59.912;30.300;2023-05-16T01:20:08;101745.22;;;16.00;44.37
35918;BME280;22011;59.912;30.300;2023-05-16T01:22:52;101733.75;;;16.07;44.20
35918;BME280;22011;59.912;30.300;2023-05-16T01:25:31;101730.28;;;15.98;44.22
35918;BME280;22011;59.912;30.300;2023-05-16T01:28:03;101740.25;;;15.89;44.85
35918;BME280;22011;59.912;30.300;2023-05-16T01:30:35;101737.06;;;15.86;44.75
35918;BME280;22011;59.912;30.300;2023-05-16T01:33:02;101733.41;;;15.79;44.82
35918;BME280;22011;59.912;30.300;2023-05-16T01:35:30;101731.91;;;15.76;45.16
35918;BME280;22011;59.912;30.300;2023-05-16T01:38:03;101732.22;;;15.81;45.33
35918;BME280;22011;59.912;30.300;2023-05-16T01:40:37;101729.19;;;15.84;45.10
35918;BME280;22011;59.912;30.300;2023-05-16T01:43:12;101724.34;;;15.80;44.89
35918;BME280;22011;59.912;30.300;2023-05-16T01:45:48;101728.03;;;15.79;45.45
35918;BME280;22011;59.912;30.300;2023-05-16T01:48:21;101723.53;;;15.71;45.56
35918;BME280;22011;59.912;30.300;2023-05-16T01:50:53;101724.25;;;15.65;45.08
35918;BME280;22011;59.912;30.300;2023-05-16T01:53:25;101714.31;;;15.65;45.12
35918;BME280;22011;59.912;30.300;2023-05-16T01:55:56;101714.31;;;15.65;45.27
35918;BME280;22011;59.912;30.300;2023-05-16T01:58:28;101712.31;;;15.67;44.86
35918;BME280;22011;59.912;30.300;2023-05-16T02:01:00;101703.09;;;15.62;44.82
35918;BME280;22011;59.912;30.300;2023-05-16T02:03:28;101703.75;;;15.64;45.14
35918;BME280;22011;59.912;30.300;2023-05-16T02:05:56;101700.59;;;15.60;45.16
35918;BME280;22011;59.912;30.300;2023-05-16T02:08:25;101703.66;;;15.57;45.16
35918;BME280;22011;59.912;30.300;2023-05-16T02:10:52;101705.50;;;15.57;44.84
35918;BME280;22011;59.912;30.300;2023-05-16T02:13:20;101713.69;;;15.55;45.12
35918;BME280;22011;59.912;30.300;2023-05-16T02:15:49;101712.56;;;15.50;44.98
35918;BME280;22011;59.912;30.300;2023-05-16T02:18:17;101713.41;;;15.81;44.12
35918;BME280;22011;59.912;30.300;2023-05-16T02:20:45;101703.13;;;15.54;44.84
35918;BME280;22011;59.912;30.300;2023-05-16T02:23:12;101705.81;;;15.54;45.09
35918;BME280;22011;59.912;30.300;2023-05-16T02:25:40;101709.88;;;15.50;45.48
35918;BME280;22011;59.912;30.300;2023-05-16T02:28:09;101718.59;;;15.52;45.39
35918;BME280;22011;59.912;30.300;2023-05-16T02:30:37;101709.50;;;15.53;45.42
35918;BME280;22011;59.912;30.300;2023-05-16T02:33:05;101713.22;;;15.60;44.76
35918;BME280;22011;59.912;30.300;2023-05-16T02:35:33;101707.63;;;15.61;44.19
35918;BME280;22011;59.912;30.300;2023-05-16T02:38:00;101708.25;;;15.72;44.48
35918;BME280;22011;59.912;30.300;2023-05-16T02:40:28;101699.34;;;15.71;44.16
35918;BME280;22011;59.912;30.300;2023-05-16T02:42:56;101693.81;;;15.73;44.29
35918;BME280;22011;59.912;30.300;2023-05-16T02:45:23;101691.47;;;15.69;44.18
35918;BME280;22011;59.912;30.300;2023-05-16T02:47:51;101689.28;;;15.73;44.40
35918;BME280;22011;59.912;30.300;2023-05-16T02:50:20;101690.53;;;15.85;43.79
35918;BME280;22011;59.912;30.300;2023-05-16T02:52:48;101688.69;;;15.86;43.93
35918;BME280;22011;59.912;30.300;2023-05-16T02:55:16;101688.69;;;15.86;44.06
35918;BME280;22011;59.912;30.300;2023-05-16T02:57:43;101683.81;;;15.89;43.80
35918;BME280;22011;59.912;30.300;2023-05-16T03:00:12;101685.84;;;15.87;43.67
35918;BME280;22011;59.912;30.300;2023-05-16T03:02:40;101683.44;;;15.92;43.83
35918;BME280;22011;59.912;30.300;2023-05-16T03:05:08;101681.41;;;15.94;43.69
35918;BME280;22011;59.912;30.300;2023-05-16T03:07:37;101688.47;;;15.95;43.67
35918;BME280;22011;59.912;30.300;2023-05-16T03:10:06;101684.41;;;15.99;43.28
35918;BME280;22011;59.912;30.300;2023-05-16T03:12:34;101675.03;;;15.95;43.55
35918;BME280;22011;59.912;30.300;2023-05-16T03:15:01;101679.75;;;15.93;43.52
35918;BME280;22011;59.912;30.300;2023-05-16T03:17:29;101675.69;;;15.97;43.67
35918;BME280;22011;59.912;30.300;2023-05-16T03:19:56;101675.69;;;15.97;43.07
35918;BME280;22011;59.912;30.300;2023-05-16T03:22:24;101667.16;;;15.94;43.54
35918;BME280;22011;59.912;30.300;2023-05-16T03:24:52;101677.34;;;15.98;43.78
35918;BME280;22011;59.912;30.300;2023-05-16T03:27:21;101676.81;;;16.03;43.51
35918;BME280;22011;59.912;30.300;2023-05-16T03:29:49;101674.31;;;16.01;43.82
35918;BME280;22011;59.912;30.300;2023-05-16T03:32:16;101671.94;;;16.07;43.45
35918;BME280;22011;59.912;30.300;2023-05-16T03:34:44;101666.91;;;16.03;43.38
35918;BME280;22011;59.912;30.300;2023-05-16T03:37:12;101662.56;;;16.02;44.04
35918;BME280;22011;59.912;30.300;2023-05-16T03:39:41;101662.19;;;16.06;44.13
35918;BME280;22011;59.912;30.300;2023-05-16T03:42:10;101661.06;;;16.00;43.92
35918;BME280;22011;59.912;30.300;2023-05-16T03:44:37;101653.72;;;15.94;43.92
35918;BME280;22011;59.912;30.300;2023-05-16T03:47:05;101655.91;;;15.90;43.82
35918;BME280;22011;59.912;30.300;2023-05-16T03:49:32;101648.50;;;15.92;44.16
35918;BME280;22011;59.912;30.300;2023-05-16T03:51:59;101649.16;;;15.94;43.83
35918;BME280;22011;59.912;30.300;2023-05-16T03:54:27;101653.16;;;15.98;44.16
35918;BME280;22011;59.912;30.300;2023-05-16T03:56:54;101649.16;;;15.94;43.88
35918;BME280;22011;59.912;30.300;2023-05-16T03:59:23;101648.16;;;15.95;44.66
35918;BME280;22011;59.912;30.300;2023-05-16T04:01:50;101644.63;;;15.95;44.64
35918;BME280;22011;59.912;30.300;2023-05-16T04:04:18;101645.09;;;15.98;44.52
35918;BME280;22011;59.912;30.300;2023-05-16T04:06:45;101648.94;;;16.04;44.59
35918;BME280;22011;59.912;30.300;2023-05-16T04:09:13;101642.66;;;16.12;44.21
35918;BME280;22011;59.912;30.300;2023-05-16T04:11:40;101641.09;;;16.17;44.58
35918;BME280;22011;59.912;30.300;2023-05-16T04:14:08;101631.59;;;16.29;44.12
35918;BME280;22011;59.912;30.300;2023-05-16T04:16:37;101640.72;;;16.43;43.84
35918;BME280;22011;59.912;30.300;2023-05-16T04:19:04;101634.25;;;16.52;43.37
35918;BME280;22011;59.912;30.300;2023-05-16T04:21:31;101638.72;;;16.60;42.98
35918;BME280;22011;59.912;30.300;2023-05-16T04:24:00;101638.16;;;16.64;43.38
35918;BME280;22011;59.912;30.300;2023-05-16T04:26:28;101630.38;;;16.70;42.96
35918;BME280;22011;59.912;30.300;2023-05-16T04:28:56;101624.25;;;16.76;42.77
35918;BME280;22011;59.912;30.300;2023-05-16T04:31:24;101618.69;;;16.92;42.36
35918;BME280;22011;59.912;30.300;2023-05-16T04:33:53;101616.63;;;17.09;42.25
35918;BME280;22011;59.912;30.300;2023-05-16T04:36:21;101620.44;;;17.14;41.79
35918;BME280;22011;59.912;30.300;2023-05-16T04:38:48;101624.63;;;17.17;41.82
35918;BME280;22011;59.912;30.300;2023-05-16T04:41:16;101628.34;;;17.16;41.78
35918;BME280;22011;59.912;30.300;2023-05-16T04:43:43;101624.63;;;17.17;41.61
35918;BME280;22011;59.912;30.300;2023-05-16T04:46:11;101623.41;;;17.19;41.58
35918;BME280;22011;59.912;30.300;2023-05-16T04:48:38;101618.47;;;17.23;41.86
35918;BME280;22011;59.912;30.300;2023-05-16T04:51:07;101626.91;;;17.35;41.74
35918;BME280;22011;59.912;30.300;2023-05-16T04:53:34;101617.25;;;17.40;41.55
35918;BME280;22011;59.912;30.300;2023-05-16T04:56:02;101623.09;;;17.44;41.14
35918;BME280;22011;59.912;30.300;2023-05-16T04:58:30;101618.16;;;17.47;41.40
35918;BME280;22011;59.912;30.300;2023-05-16T05:00:58;101609.50;;;17.52;41.66
35918;BME280;22011;59.912;30.300;2023-05-16T05:03:25;101620.63;;;17.63;41.12
35918;BME280;22011;59.912;30.300;2023-05-16T05:05:53;101617.25;;;17.76;41.09
35918;BME280;22011;59.912;30.300;2023-05-16T05:08:22;101623.53;;;17.83;40.90
35918;BME280;22011;59.912;30.300;2023-05-16T05:10:49;101619.44;;;17.87;40.60
35918;BME280;22011;59.912;30.300;2023-05-16T05:13:16;101616.03;;;18.00;40.77
35918;BME280;22011;59.912;30.300;2023-05-16T05:15:44;101616.47;;;18.04;40.89
35918;BME280;22011;59.912;30.300;2023-05-16T05:18:11;101621.47;;;18.07;40.42
35918;BME280;22011;59.912;30.300;2023-05-16T05:20:39;101611.59;;;18.14;40.56
35918;BME280;22011;59.912;30.300;2023-05-16T05:23:06;101606.69;;;18.24;40.43
35918;BME280;22011;59.912;30.300;2023-05-16T05:25:35;101611.38;;;18.37;40.22
35918;BME280;22011;59.912;30.300;2023-05-16T05:28:03;101602.69;;;18.41;40.32
35918;BME280;22011;59.912;30.300;2023-05-16T05:30:31;101602.53;;;18.49;40.20
35918;BME280;22011;59.912;30.300;2023-05-16T05:32:58;101595.50;;;18.55;39.80
35918;BME280;22011;59.912;30.300;2023-05-16T05:35:25;101596.44;;;18.62;40.04
35918;BME280;22011;59.912;30.300;2023-05-16T05:37:53;101590.25;;;18.75;39.40
35918;BME280;22011;59.912;30.300;2023-05-16T05:40:20;101591.75;;;18.84;39.86
35918;BME280;22011;59.912;30.300;2023-05-16T05:42:49;101595.56;;;18.96;39.44
35918;BME280;22011;59.912;30.300;2023-05-16T05:45:17;101586.84;;;19.01;39.01
35918;BME280;22011;59.912;30.300;2023-05-16T05:47:44;101579.00;;;19.06;39.04
35918;BME280;22011;59.912;30.300;2023-05-16T05:50:12;101588.59;;;19.15;38.92
35918;BME280;22011;59.912;30.300;2023-05-16T05:52:40;101582.56;;;19.19;38.68
35918;BME280;22011;59.912;30.300;2023-05-16T05:55:08;101582.16;;;19.22;38.63
35918;BME280;22011;59.912;30.300;2023-05-16T05:57:36;101583.44;;;19.26;38.78
35918;BME280;22011;59.912;30.300;2023-05-16T06:00:06;101587.44;;;19.37;38.58
35918;BME280;22011;59.912;30.300;2023-05-16T06:02:35;101584.31;;;19.40;38.16
35918;BME280;22011;59.912;30.300;2023-05-16T06:05:02;101582.88;;;19.44;38.03
35918;BME280;22011;59.912;30.300;2023-05-16T06:07:30;101584.59;;;19.52;37.92
35918;BME280;22011;59.912;30.300;2023-05-16T06:09:57;101587.34;;;19.72;37.71
35918;BME280;22011;59.912;30.300;2023-05-16T06:12:29;101563.41;;;19.88;37.24
35918;BME280;22011;59.912;30.300;2023-05-16T06:14:57;101560.91;;;20.00;36.91
35918;BME280;22011;59.912;30.300;2023-05-16T06:17:25;101561.75;;;20.14;36.98
35918;BME280;22011;59.912;30.300;2023-05-16T06:19:53;101552.38;;;20.23;36.72
35918;BME280;22011;59.912;30.300;2023-05-16T06:22:20;101562.97;;;20.38;35.13
35918;BME280;22011;59.912;30.300;2023-05-16T06:24:47;101558.00;;;20.41;35.22
35918;BME280;22011;59.912;30.300;2023-05-16T06:27:15;101546.78;;;20.44;35.15
35918;BME280;22011;59.912;30.300;2023-05-16T06:29:42;101558.00;;;20.54;35.23
35918;BME280;22011;59.912;30.300;2023-05-16T06:32:10;101540.47;;;20.64;34.62
35918;BME280;22011;59.912;30.300;2023-05-16T06:34:39;101552.94;;;20.78;34.72
35918;BME280;22011;59.912;30.300;2023-05-16T06:37:06;101550.38;;;20.89;34.26
35918;BME280;22011;59.912;30.300;2023-05-16T06:39:34;101539.25;;;21.04;33.65
35918;BME280;22011;59.912;30.300;2023-05-16T06:42:01;101536.88;;;21.21;33.79
35918;BME280;22011;59.912;30.300;2023-05-16T06:44:31;101538.78;;;21.59;33.99
35918;BME280;22011;59.912;30.300;2023-05-16T06:46:58;101525.13;;;21.40;32.89
35918;BME280;22011;59.912;30.300;2023-05-16T06:49:26;101529.22;;;21.56;32.61
35918;BME280;22011;59.912;30.300;2023-05-16T06:51:55;101536.81;;;21.72;32.40
35918;BME280;22011;59.912;30.300;2023-05-16T06:54:22;101521.09;;;21.81;31.96
35918;BME280;22011;59.912;30.300;2023-05-16T06:56:49;101518.69;;;21.91;31.55
35918;BME280;22011;59.912;30.300;2023-05-16T06:59:17;101514.03;;;21.98;31.61
35918;BME280;22011;59.912;30.300;2023-05-16T07:01:44;101516.44;;;22.13;31.28
35918;BME280;22011;59.912;30.300;2023-05-16T07:04:12;101515.25;;;22.27;31.02
35918;BME280;22011;59.912;30.300;2023-05-16T07:06:40;101519.78;;;22.33;30.36
35918;BME280;22011;59.912;30.300;2023-05-16T07:09:09;101510.91;;;22.44;29.55
35918;BME280;22011;59.912;30.300;2023-05-16T07:11:36;101513.41;;;22.46;29.45
35918;BME280;22011;59.912;30.300;2023-05-16T07:14:03;101510.47;;;22.47;28.56
35918;BME280;22011;59.912;30.300;2023-05-16T07:16:31;101501.25;;;22.48;28.17
35918;BME280;22011;59.912;30.300;2023-05-16T07:18:58;101510.00;;;22.50;28.42
35918;BME280;22011;59.912;30.300;2023-05-16T07:21:26;101501.09;;;22.43;28.72
35918;BME280;22011;59.912;30.300;2023-05-16T07:23:54;101499.13;;;22.50;28.39
35918;BME280;22011;59.912;30.300;2023-05-16T07:26:23;101507.13;;;22.64;28.01
35918;BME280;22011;59.912;30.300;2023-05-16T07:28:50;101503.00;;;22.61;28.37
35918;BME280;22011;59.912;30.300;2023-05-16T07:31:18;101504.72;;;22.74;27.96
35918;BME280;22011;59.912;30.300;2023-05-16T07:33:45;101495.06;;;22.78;28.56
35918;BME280;22011;59.912;30.300;2023-05-16T07:36:14;101494.88;;;22.91;28.61
35918;BME280;22011;59.912;30.300;2023-05-16T07:38:41;101493.19;;;23.08;28.03
35918;BME280;22011;59.912;30.300;2023-05-16T07:41:09;101487.06;;;23.13;27.68
35918;BME280;22011;59.912;30.300;2023-05-16T07:43:38;101494.63;;;23.11;27.49
35918;BME280;22011;59.912;30.300;2023-05-16T07:46:05;101489.06;;;23.06;27.47
35918;BME280;22011;59.912;30.300;2023-05-16T07:48:33;101481.78;;;23.18;27.57
35918;BME280;22011;59.912;30.300;2023-05-16T07:51:00;101485.19;;;23.13;27.81
35918;BME280;22011;59.912;30.300;2023-05-16T07:53:27;101482.56;;;23.07;28.12
35918;BME280;22011;59.912;30.300;2023-05-16T07:55:55;101480.66;;;23.07;27.44
35918;BME280;22011;59.912;30.300;2023-05-16T07:58:22;101484.13;;;23.14;27.24
35918;BME280;22011;59.912;30.300;2023-05-16T08:00:51;101488.03;;;23.19;27.04
35918;BME280;22011;59.912;30.300;2023-05-16T08:03:19;101480.44;;;23.09;27.15
35918;BME280;22011;59.912;30.300;2023-05-16T08:05:46;101485.63;;;23.10;26.87
35918;BME280;22011;59.912;30.300;2023-05-16T08:08:13;101489.50;;;23.03;27.20
35918;BME280;22011;59.912;30.300;2023-05-16T08:10:41;101498.66;;;22.90;27.32
35918;BME280;22011;59.912;30.300;2023-05-16T08:13:08;101491.69;;;22.82;27.57
35918;BME280;22011;59.912;30.300;2023-05-16T09:41:24;101422.69;;;24.54;26.54
35918;BME280;22011;59.912;30.300;2023-05-16T09:43:52;101426.13;;;24.49;26.71
35918;BME280;22011;59.912;30.300;2023-05-16T09:46:24;101426.34;;;24.59;26.21
35918;BME280;22011;59.912;30.300;2023-05-16T09:48:53;101423.69;;;24.36;25.81
35918;BME280;22011;59.912;30.300;2023-05-16T09:51:21;101421.66;;;24.43;26.38
35918;BME280;22011;59.912;30.300;2023-05-16T09:53:49;101415.84;;;24.39;25.58
35918;BME280;22011;59.912;30.300;2023-05-16T09:56:16;101409.00;;;24.25;25.63
35918;BME280;22011;59.912;30.300;2023-05-16T09:58:45;101406.53;;;24.12;25.91
35918;BME280;22011;59.912;30.300;2023-05-16T10:01:12;101399.09;;;23.96;26.48
35918;BME280;22011;59.912;30.300;2023-05-16T10:03:42;101405.69;;;24.11;26.14
35918;BME280;22011;59.912;30.300;2023-05-16T10:06:11;101406.53;;;24.12;26.18
35918;BME280;22011;59.912;30.300;2023-05-16T10:08:41;101395.63;;;24.12;26.15
35918;BME280;22011;59.912;30.300;2023-05-16T10:11:09;101393.13;;;24.22;26.08
35918;BME280;22011;59.912;30.300;2023-05-16T10:13:38;101397.47;;;24.47;25.71
35918;BME280;22011;59.912;30.300;2023-05-16T10:16:09;101394.69;;;24.70;25.48
35918;BME280;22011;59.912;30.300;2023-05-16T10:18:38;101402.75;;;24.65;24.83
35918;BME280;22011;59.912;30.300;2023-05-16T10:21:08;101388.78;;;24.61;24.90
35918;BME280;22011;59.912;30.300;2023-05-16T10:23:37;101397.59;;;24.52;24.74
35918;BME280;22011;59.912;30.300;2023-05-16T10:26:07;101395.38;;;24.37;25.19
35918;BME280;22011;59.912;30.300;2023-05-16T10:28:35;101392.19;;;24.28;24.83
35918;BME280;22011;59.912;30.300;2023-05-16T10:31:03;101395.84;;;24.22;24.78
35918;BME280;22011;59.912;30.300;2023-05-16T10:33:34;101392.19;;;24.28;25.15
35918;BME280;22011;59.912;30.300;2023-05-16T10:36:02;101389.13;;;24.13;24.74
35918;BME280;22011;59.912;30.300;2023-05-16T10:38:31;101402.50;;;24.14;24.98
35918;BME280;22011;59.912;30.300;2023-05-16T10:40:58;101389.13;;;24.13;24.88
35918;BME280;22011;59.912;30.300;2023-05-16T10:43:27;101388.91;;;24.03;25.24
35918;BME280;22011;59.912;30.300;2023-05-16T10:45:57;101394.63;;;23.90;25.67
35918;BME280;22011;59.912;30.300;2023-05-16T10:48:28;101394.13;;;23.93;25.14
35918;BME280;22011;59.912;30.300;2023-05-16T10:50:58;101386.00;;;23.81;25.21
35918;BME280;22011;59.912;30.300;2023-05-16T10:53:30;101392.38;;;23.75;25.68
35918;BME280;22011;59.912;30.300;2023-05-16T10:56:08;101395.34;;;23.85;25.54
35918;BME280;22011;59.912;30.300;2023-05-16T10:58:43;101378.78;;;23.87;25.48
35918;BME280;22011;59.912;30.300;2023-05-16T11:01:15;101379.84;;;23.86;26.18
35918;BME280;22011;59.912;30.300;2023-05-16T11:04:01;101381.09;;;23.95;25.78
35918;BME280;22011;59.912;30.300;2023-05-16T11:06:32;101385.28;;;23.62;25.80
35918;BME280;22011;59.912;30.300;2023-05-16T11:09:07;101380.09;;;23.72;25.49
35918;BME280;22011;59.912;30.300;2023-05-16T11:11:39;101384.69;;;23.60;25.77
35918;BME280;22011;59.912;30.300;2023-05-16T11:14:07;101379.47;;;23.47;25.87
35918;BME280;22011;59.912;30.300;2023-05-16T11:16:35;101381.84;;;23.55;25.80
35918;BME280;22011;59.912;30.300;2023-05-16T11:19:06;101369.31;;;23.77;25.55
35918;BME280;22011;59.912;30.300;2023-05-16T11:22:06;101370.22;;;23.95;25.59
35918;BME280;22011;59.912;30.300;2023-05-16T11:24:35;101358.44;;;23.77;25.37
35918;BME280;22011;59.912;30.300;2023-05-16T11:27:03;101350.38;;;23.83;25.25
35918;BME280;22011;59.912;30.300;2023-05-16T11:29:32;101358.31;;;23.84;25.85
35918;BME280;22011;59.912;30.300;2023-05-16T11:32:00;101356.78;;;23.76;26.27
35918;BME280;22011;59.912;30.300;2023-05-16T11:34:28;101353.25;;;23.64;26.51
35918;BME280;22011;59.912;30.300;2023-05-16T11:36:56;101360.94;;;23.56;26.77
35918;BME280;22011;59.912;30.300;2023-05-16T11:39:28;101352.06;;;23.60;26.37
35918;BME280;22011;59.912;30.300;2023-05-16T11:41:56;101348.47;;;23.48;26.95
35918;BME280;22011;59.912;30.300;2023-05-16T11:44:23;101354.84;;;23.42;27.23
35918;BME280;22011;59.912;30.300;2023-05-16T11:46:51;101354.25;;;23.40;26.68
35918;BME280;22011;59.912;30.300;2023-05-16T11:49:18;101348.13;;;23.44;26.45
35918;BME280;22011;59.912;30.300;2023-05-16T11:51:46;101351.53;;;23.40;26.54
35918;BME280;22011;59.912;30.300;2023-05-16T11:54:14;101345.50;;;23.38;26.47
35918;BME280;22011;59.912;30.300;2023-05-16T11:56:43;101335.69;;;23.37;26.40
35918;BME280;22011;59.912;30.300;2023-05-16T11:59:11;101335.00;;;23.30;26.42
35918;BME280;22011;59.912;30.300;2023-05-16T12:01:39;101345.97;;;23.23;26.99
35918;BME280;22011;59.912;30.300;2023-05-16T12:04:07;101338.88;;;23.10;27.06
35918;BME280;22011;59.912;30.300;2023-05-16T12:06:36;101335.66;;;23.02;27.13
35918;BME280;22011;59.912;30.300;2023-05-16T12:09:04;101336.13;;;22.87;27.21
35918;BME280;22011;59.912;30.300;2023-05-16T12:11:36;101339.25;;;22.72;27.32
35918;BME280;22011;59.912;30.300;2023-05-16T12:14:06;101346.56;;;22.72;27.69
35918;BME280;22011;59.912;30.300;2023-05-16T12:16:34;101346.53;;;22.60;27.61
35918;BME280;22011;59.912;30.300;2023-05-16T12:19:04;101342.84;;;22.55;27.56
35918;BME280;22011;59.912;30.300;2023-05-16T12:21:31;101345.56;;;22.55;27.39
35918;BME280;22011;59.912;30.300;2023-05-16T12:23:59;101345.03;;;22.46;27.37
35918;BME280;22011;59.912;30.300;2023-05-16T12:26:29;101346.59;;;22.54;27.34
35918;BME280;22011;59.912;30.300;2023-05-16T12:28:59;101340.59;;;22.51;27.76
35918;BME280;22011;59.912;30.300;2023-05-16T12:31:30;101342.25;;;22.52;27.85
35918;BME280;22011;59.912;30.300;2023-05-16T12:34:01;101331.97;;;22.55;27.59
35918;BME280;22011;59.912;30.300;2023-05-16T12:36:31;101329.41;;;22.60;27.46
35918;BME280;22011;59.912;30.300;2023-05-16T12:38:59;101321.81;;;22.92;27.57
35918;BME280;22011;59.912;30.300;2023-05-16T12:41:29;101312.06;;;22.72;27.71
35918;BME280;22011;59.912;30.300;2023-05-16T12:44:06;101306.81;;;22.89;27.72
35918;BME280;22011;59.912;30.300;2023-05-16T12:46:40;101299.72;;;22.88;27.37
35918;BME280;22011;59.912;30.300;2023-05-16T12:49:07;101295.47;;;22.80;27.59
35918;BME280;22011;59.912;30.300;2023-05-16T12:51:35;101300.28;;;22.78;27.80
35918;BME280;22011;59.912;30.300;2023-05-16T12:54:09;101305.88;;;22.83;28.11
35918;BME280;22011;59.912;30.300;2023-05-16T12:56:38;101296.25;;;22.69;28.05
35918;BME280;22011;59.912;30.300;2023-05-16T12:59:05;101297.75;;;22.65;28.28
35918;BME280;22011;59.912;30.300;2023-05-16T13:01:33;101294.09;;;22.60;28.00
35918;BME280;22011;59.912;30.300;2023-05-16T13:04:03;101297.41;;;22.62;28.10
35918;BME280;22011;59.912;30.300;2023-05-16T13:06:31;101294.31;;;22.58;28.31
35918;BME280;22011;59.912;30.300;2023-05-16T13:08:58;101293.03;;;22.61;28.43
35918;BME280;22011;59.912;30.300;2023-05-16T13:11:27;101293.16;;;22.66;27.78
35918;BME280;22011;59.912;30.300;2023-05-16T13:13:55;101287.13;;;22.64;27.84
35918;BME280;22011;59.912;30.300;2023-05-16T13:16:22;101294.69;;;22.62;27.74
35918;BME280;22011;59.912;30.300;2023-05-16T13:18:50;101289.34;;;22.55;28.11
35918;BME280;22011;59.912;30.300;2023-05-16T13:21:19;101296.66;;;22.55;27.89
35918;BME280;22011;59.912;30.300;2023-05-16T13:23:48;101300.31;;;22.48;28.48
35918;BME280;22011;59.912;30.300;2023-05-16T13:26:15;101287.19;;;22.45;28.50
35918;BME280;22011;59.912;30.300;2023-05-16T13:28:42;101295.78;;;22.42;28.12
35918;BME280;22011;59.912;30.300;2023-05-16T13:31:10;101291.44;;;22.41;28.23
35918;BME280;22011;59.912;30.300;2023-05-16T13:33:37;101288.84;;;22.46;27.83
35918;BME280;22011;59.912;30.300;2023-05-16T13:36:06;101296.41;;;22.44;28.11
35918;BME280;22011;59.912;30.300;2023-05-16T13:38:34;101290.28;;;22.49;27.65
35918;BME280;22011;59.912;30.300;2023-05-16T13:41:02;101272.22;;;22.55;27.80
35918;BME280;22011;59.912;30.300;2023-05-16T13:43:30;101276.22;;;22.52;27.82
35918;BME280;22011;59.912;30.300;2023-05-16T13:45:57;101269.28;;;22.56;27.77
35918;BME280;22011;59.912;30.300;2023-05-16T13:48:24;101275.16;;;22.53;27.78
35918;BME280;22011;59.912;30.300;2023-05-16T13:50:52;101267.72;;;22.48;28.31
35918;BME280;22011;59.912;30.300;2023-05-16T13:53:20;101279.78;;;22.52;28.22
35918;BME280;22011;59.912;30.300;2023-05-16T13:55:49;101283.78;;;22.50;28.44
35918;BME280;22011;59.912;30.300;2023-05-16T13:58:17;101272.09;;;22.49;27.90
35918;BME280;22011;59.912;30.300;2023-05-16T14:00:44;101286.47;;;22.38;28.08
35918;BME280;22011;59.912;30.300;2023-05-16T14:03:12;101282.19;;;22.31;28.75
35918;BME280;22011;59.912;30.300;2023-05-16T14:05:39;101282.25;;;22.24;28.68
35918;BME280;22011;59.912;30.300;2023-05-16T14:08:07;101291.09;;;22.19;28.80
35918;BME280;22011;59.912;30.300;2023-05-16T14:10:34;101293.59;;;22.21;28.36
35918;BME280;22011;59.912;30.300;2023-05-16T14:13:03;101302.81;;;22.02;31.45